sensor_id;sensor_type;location;lat;lon;timestamp;pressure;altitude;pressure_sealevel;temperature;humidity
54308;BME280;40208;39.778;2.710;2022-08-24T00:02:18;101274.16;;;25.09;100.00
54308;BME280;40208;39.778;2.710;2022-08-24T00:05:04;101269.31;;;25.03;100.00
54308;BME280;40208;39.778;2.710;2022-08-24T00:07:49;101271.91;;;25.05;100.00
54308;BME280;40208;39.778;2.710;2022-08-24T00:10:34;101246.00;;;24.83;100.00
54308;BME280;40208;39.778;2.710;2022-08-24T00:13:19;101247.72;;;24.84;100.00
54308;BME280;40208;39.778;2.710;2022-08-24T00:16:05;101270.47;;;25.01;100.00
54308;BME280;40208;39.778;2.710;2022-08-24T00:18:51;101275.78;;;25.02;100.00
54308;BME280;40208;39.778;2.710;2022-08-24T00:21:36;101277.91;;;24.98;100.00
54308;BME280;40208;39.778;2.710;2022-08-24T00:24:21;101266.56;;;24.85;100.00
54308;BME280;40208;39.778;2.710;2022-08-24T00:27:07;101275.97;;;24.91;100.00
54308;BME280;40208;39.778;2.710;2022-08-24T00:29:52;101282.56;;;24.88;100.00
54308;BME280;40208;39.778;2.710;2022-08-24T00:32:37;101276.88;;;24.82;100.00
54308;BME280;40208;39.778;2.710;2022-08-24T00:35:22;101273.91;;;24.75;100.00
54308;BME280;40208;39.778;2.710;2022-08-24T00:38:08;101276.34;;;24.78;100.00
54308;BME280;40208;39.778;2.710;2022-08-24T00:40:53;101269.63;;;24.72;100.00
54308;BME280;40208;39.778;2.710;2022-08-24T00:43:38;101270.31;;;24.74;100.00
54308;BME280;40208;39.778;2.710;2022-08-24T00:52:33;101260.38;;;24.65;100.00
54308;BME280;40208;39.778;2.710;2022-08-24T00:55:22;101141.09;;;23.99;100.00
54308;BME280;40208;39.778;2.710;2022-08-24T00:58:15;101192.53;;;24.28;100.00
54308;BME280;40208;39.778;2.710;2022-08-24T01:01:03;101202.75;;;24.34;100.00
54308;BME280;40208;39.778;2.710;2022-08-24T01:03:49;101256.09;;;24.63;100.00
54308;BME280;40208;39.778;2.710;2022-08-24T01:06:35;101165.63;;;24.07;100.00
54308;BME280;40208;39.778;2.710;2022-08-24T01:09:20;101246.00;;;24.55;100.00
54308;BME280;40208;39.778;2.710;2022-08-24T01:12:05;101256.72;;;24.57;100.00
54308;BME280;40208;39.778;2.710;2022-08-24T01:14:50;101245.13;;;24.54;100.00
54308;BME280;40208;39.778;2.710;2022-08-24T01:17:36;101237.13;;;24.53;100.00
54308;BME280;40208;39.778;2.710;2022-08-24T01:20:42;101233.88;;;24.49;100.00
54308;BME280;40208;39.778;2.710;2022-08-24T01:26:37;101242.56;;;24.53;100.00
54308;BME280;40208;39.778;2.710;2022-08-24T01:29:26;101248.44;;;24.48;100.00
54308;BME280;40208;39.778;2.710;2022-08-24T01:32:11;101238.88;;;24.44;100.00
54308;BME280;40208;39.778;2.710;2022-08-24T01:34:56;101219.06;;;24.24;100.00
54308;BME280;40208;39.778;2.710;2022-08-24T01:37:42;101231.63;;;24.35;100.00
54308;BME280;40208;39.778;2.710;2022-08-24T01:40:32;101238.44;;;24.39;100.00
54308;BME280;40208;39.778;2.710;2022-08-24T01:43:17;101236.34;;;24.33;100.00
54308;BME280;40208;39.778;2.710;2022-08-24T01:46:03;101186.31;;;23.98;100.00
54308;BME280;40208;39.778;2.710;2022-08-24T01:48:47;101242.47;;;24.35;100.00
54308;BME280;40208;39.778;2.710;2022-08-24T01:51:33;101243.19;;;24.37;100.00
54308;BME280;40208;39.778;2.710;2022-08-24T01:54:18;101238.19;;;24.32;100.00
54308;BME280;40208;39.778;2.710;2022-08-24T01:57:03;101245.75;;;24.29;100.00
54308;BME280;40208;39.778;2.710;2022-08-24T01:59:48;101229.63;;;24.27;100.00
54308;BME280;40208;39.778;2.710;2022-08-24T02:02:33;101237.22;;;24.24;100.00
54308;BME280;40208;39.778;2.710;2022-08-24T02:05:18;101231.09;;;24.22;100.00
54308;BME280;40208;39.778;2.710;2022-08-24T02:08:03;101238.50;;;24.20;100.00
54308;BME280;40208;39.778;2.710;2022-08-24T02:10:48;101204.47;;;23.98;100.00
54308;BME280;40208;39.778;2.710;2022-08-24T02:13:34;101237.25;;;24.14;100.00
54308;BME280;40208;39.778;2.710;2022-08-24T02:16:19;101233.81;;;24.12;100.00
54308;BME280;40208;39.778;2.710;2022-08-24T02:19:05;101232.41;;;24.08;100.00
54308;BME280;40208;39.778;2.710;2022-08-24T02:21:50;101233.69;;;24.13;100.00
54308;BME280;40208;39.778;2.710;2022-08-24T02:24:35;101235.69;;;24.11;100.00
54308;BME280;40208;39.778;2.710;2022-08-24T02:27:20;101235.28;;;24.06;100.00
54308;BME280;40208;39.778;2.710;2022-08-24T02:30:05;101236.97;;;24.07;100.00
54308;BME280;40208;39.778;2.710;2022-08-24T02:32:50;101236.25;;;24.05;100.00
54308;BME280;40208;39.778;2.710;2022-08-24T02:35:35;101223.31;;;23.99;100.00
54308;BME280;40208;39.778;2.710;2022-08-24T02:38:20;101192.31;;;23.73;100.00
54308;BME280;40208;39.778;2.710;2022-08-24T02:41:05;101231.44;;;23.99;100.00
54308;BME280;40208;39.778;2.710;2022-08-24T02:43:51;101202.63;;;23.79;100.00
54308;BME280;40208;39.778;2.710;2022-08-24T02:46:36;101232.72;;;23.95;100.00
54308;BME280;40208;39.778;2.710;2022-08-24T02:49:21;101237.44;;;23.93;100.00
54308;BME280;40208;39.778;2.710;2022-08-24T02:52:06;101215.03;;;23.91;100.00
54308;BME280;40208;39.778;2.710;2022-08-24T02:54:51;101226.88;;;23.90;100.00
54308;BME280;40208;39.778;2.710;2022-08-24T02:57:36;101224.59;;;23.85;100.00
54308;BME280;40208;39.778;2.710;2022-08-24T03:00:21;101194.34;;;23.70;100.00
54308;BME280;40208;39.778;2.710;2022-08-24T03:03:07;101225.31;;;23.87;100.00
54308;BME280;40208;39.778;2.710;2022-08-24T03:05:52;101115.53;;;23.25;100.00
54308;BME280;40208;39.778;2.710;2022-08-24T03:08:37;101223.47;;;23.88;100.00
54308;BME280;40208;39.778;2.710;2022-08-24T03:11:25;101224.59;;;23.85;100.00
54308;BME280;40208;39.778;2.710;2022-08-24T03:14:09;101220.34;;;23.83;100.00
54308;BME280;40208;39.778;2.710;2022-08-24T03:16:55;101191.50;;;23.62;100.00
54308;BME280;40208;39.778;2.710;2022-08-24T03:19:40;101216.06;;;23.80;100.00
54308;BME280;40208;39.778;2.710;2022-08-24T03:22:26;101212.91;;;23.75;100.00
54308;BME280;40208;39.778;2.710;2022-08-24T03:25:13;101213.78;;;23.76;100.00
54308;BME280;40208;39.778;2.710;2022-08-24T03:27:57;101200.75;;;23.69;100.00
54308;BME280;40208;39.778;2.710;2022-08-24T03:30:42;101215.19;;;23.80;100.00
54308;BME280;40208;39.778;2.710;2022-08-24T03:33:27;101216.91;;;23.81;100.00
54308;BME280;40208;39.778;2.710;2022-08-24T03:36:12;101211.78;;;23.78;100.00
54308;BME280;40208;39.778;2.710;2022-08-24T03:38:57;101168.69;;;23.45;100.00
54308;BME280;40208;39.778;2.710;2022-08-24T03:41:42;101212.31;;;23.71;100.00
54308;BME280;40208;39.778;2.710;2022-08-24T03:44:26;101199.75;;;23.61;100.00
54308;BME280;40208;39.778;2.710;2022-08-24T03:47:11;101211.91;;;23.66;100.00
54308;BME280;40208;39.778;2.710;2022-08-24T03:49:56;101209.19;;;23.66;100.00
54308;BME280;40208;39.778;2.710;2022-08-24T03:52:41;101206.78;;;23.63;100.00
54308;BME280;40208;39.778;2.710;2022-08-24T03:55:26;101207.03;;;23.60;100.00
54308;BME280;40208;39.778;2.710;2022-08-24T03:58:11;101210.91;;;23.58;100.00
54308;BME280;40208;39.778;2.710;2022-08-24T04:00:56;101188.09;;;23.41;100.00
54308;BME280;40208;39.778;2.710;2022-08-24T04:03:43;101209.63;;;23.52;100.00
54308;BME280;40208;39.778;2.710;2022-08-24T04:06:29;101217.34;;;23.47;100.00
54308;BME280;40208;39.778;2.710;2022-08-24T04:09:15;101217.59;;;23.44;100.00
54308;BME280;40208;39.778;2.710;2022-08-24T04:11:59;101182.69;;;23.21;100.00
54308;BME280;40208;39.778;2.710;2022-08-24T04:14:44;101217.16;;;23.39;100.00
54308;BME280;40208;39.778;2.710;2022-08-24T04:17:29;101215.47;;;23.38;100.00
54308;BME280;40208;39.778;2.710;2022-08-24T04:20:14;101218.44;;;23.35;100.00
54308;BME280;40208;39.778;2.710;2022-08-24T04:22:58;101214.31;;;23.31;100.00
54308;BME280;40208;39.778;2.710;2022-08-24T04:25:45;101215.19;;;23.31;100.00
54308;BME280;40208;39.778;2.710;2022-08-24T04:28:31;101217.16;;;23.29;100.00
54308;BME280;40208;39.778;2.710;2022-08-24T04:31:16;101219.31;;;23.25;100.00
54308;BME280;40208;39.778;2.710;2022-08-24T04:34:02;101219.56;;;23.22;100.00
54308;BME280;40208;39.778;2.710;2022-08-24T04:36:48;101212.03;;;23.16;100.00
54308;BME280;40208;39.778;2.710;2022-08-24T04:39:32;101217.16;;;23.19;100.00
54308;BME280;40208;39.778;2.710;2022-08-24T04:42:18;101219.16;;;23.17;100.00
54308;BME280;40208;39.778;2.710;2022-08-24T04:45:03;101200.47;;;23.04;100.00
54308;BME280;40208;39.778;2.710;2022-08-24T04:47:48;101148.69;;;22.78;100.00
54308;BME280;40208;39.778;2.710;2022-08-24T04:50:34;101203.75;;;23.08;100.00
54308;BME280;40208;39.778;2.710;2022-08-24T04:53:19;101103.50;;;22.50;100.00
54308;BME280;40208;39.778;2.710;2022-08-24T04:56:09;101222.00;;;23.16;100.00
54308;BME280;40208;39.778;2.710;2022-08-24T04:58:54;101220.41;;;23.13;100.00
54308;BME280;40208;39.778;2.710;2022-08-24T05:01:40;101221.72;;;23.09;100.00
54308;BME280;40208;39.778;2.710;2022-08-24T05:04:25;101219.56;;;23.03;100.00
54308;BME280;40208;39.778;2.710;2022-08-24T05:07:10;101222.56;;;23.00;100.00
54308;BME280;40208;39.778;2.710;2022-08-24T05:09:55;101229.06;;;22.97;100.00
54308;BME280;40208;39.778;2.710;2022-08-24T05:12:40;101183.44;;;22.73;100.00
54308;BME280;40208;39.778;2.710;2022-08-24T05:15:25;101235.66;;;23.04;100.00
54308;BME280;40208;39.778;2.710;2022-08-24T05:18:11;101230.22;;;22.95;100.00
54308;BME280;40208;39.778;2.710;2022-08-24T05:20:56;101195.22;;;22.72;100.00
54308;BME280;40208;39.778;2.710;2022-08-24T05:23:41;101238.44;;;22.93;100.00
54308;BME280;40208;39.778;2.710;2022-08-24T05:26:27;101252.00;;;22.93;100.00
54308;BME280;40208;39.778;2.710;2022-08-24T05:29:12;101243.44;;;22.88;100.00
54308;BME280;40208;39.778;2.710;2022-08-24T05:31:58;101087.84;;;21.82;100.00
54308;BME280;40208;39.778;2.710;2022-08-24T05:34:42;101212.16;;;22.64;100.00
54308;BME280;40208;39.778;2.710;2022-08-24T05:37:27;101245.94;;;22.80;100.00
54308;BME280;40208;39.778;2.710;2022-08-24T05:40:15;101252.69;;;22.85;100.00
54308;BME280;40208;39.778;2.710;2022-08-24T05:43:00;101235.53;;;22.75;100.00
54308;BME280;40208;39.778;2.710;2022-08-24T05:45:45;101265.22;;;22.86;100.00
54308;BME280;40208;39.778;2.710;2022-08-24T05:48:30;101250.06;;;22.74;100.00
54308;BME280;40208;39.778;2.710;2022-08-24T05:51:14;101228.38;;;22.55;100.00
54308;BME280;40208;39.778;2.710;2022-08-24T05:53:59;101215.09;;;22.52;100.00
54308;BME280;40208;39.778;2.710;2022-08-24T05:56:44;101268.31;;;22.82;100.00
54308;BME280;40208;39.778;2.710;2022-08-24T05:59:30;101137.00;;;22.07;100.00
54308;BME280;40208;39.778;2.710;2022-08-24T06:02:17;101293.09;;;22.77;100.00
54308;BME280;40208;39.778;2.710;2022-08-24T06:05:02;101264.66;;;22.83;100.00
54308;BME280;40208;39.778;2.710;2022-08-24T06:07:47;101278.03;;;22.84;100.00
54308;BME280;40208;39.778;2.710;2022-08-24T06:10:44;101281.16;;;22.90;100.00
54308;BME280;40208;39.778;2.710;2022-08-24T06:13:29;101251.78;;;22.75;100.00
54308;BME280;40208;39.778;2.710;2022-08-24T06:16:14;101278.47;;;22.90;100.00
54308;BME280;40208;39.778;2.710;2022-08-24T06:18:59;101270.63;;;22.86;100.00
54308;BME280;40208;39.778;2.710;2022-08-24T06:21:46;101293.50;;;23.03;100.00
54308;BME280;40208;39.778;2.710;2022-08-24T06:24:34;101284.13;;;23.07;100.00
54308;BME280;40208;39.778;2.710;2022-08-24T06:27:38;101277.94;;;22.96;100.00
54308;BME280;40208;39.778;2.710;2022-08-24T06:30:24;101297.38;;;23.11;100.00
54308;BME280;40208;39.778;2.710;2022-08-24T06:33:09;101293.28;;;23.16;100.00
54308;BME280;40208;39.778;2.710;2022-08-24T06:35:55;101266.75;;;23.10;100.00
54308;BME280;40208;39.778;2.710;2022-08-24T06:38:39;101243.91;;;23.03;100.00
54308;BME280;40208;39.778;2.710;2022-08-24T06:41:25;101306.84;;;23.36;100.00
54308;BME280;40208;39.778;2.710;2022-08-24T06:44:10;101296.31;;;23.42;100.00
54308;BME280;40208;39.778;2.710;2022-08-24T06:46:54;101290.59;;;23.45;100.00
54308;BME280;40208;39.778;2.710;2022-08-24T06:49:39;101261.34;;;23.29;100.00
54308;BME280;40208;39.778;2.710;2022-08-24T06:52:24;101293.88;;;23.49;100.00
54308;BME280;40208;39.778;2.710;2022-08-24T06:55:10;101293.75;;;23.60;100.00
54308;BME280;40208;39.778;2.710;2022-08-24T06:57:55;101294.75;;;23.59;100.00
54308;BME280;40208;39.778;2.710;2022-08-24T07:00:40;101291.03;;;23.60;100.00
54308;BME280;40208;39.778;2.710;2022-08-24T07:03:26;101285.19;;;23.65;100.00
54308;BME280;40208;39.778;2.710;2022-08-24T07:06:12;101241.56;;;23.39;100.00
54308;BME280;40208;39.778;2.710;2022-08-24T07:08:57;101261.53;;;23.67;100.00
54308;BME280;40208;39.778;2.710;2022-08-24T07:11:42;101271.69;;;23.75;100.00
54308;BME280;40208;39.778;2.710;2022-08-24T07:14:27;101290.22;;;23.99;100.00
54308;BME280;40208;39.778;2.710;2022-08-24T07:17:12;101285.47;;;24.10;100.00
54308;BME280;40208;39.778;2.710;2022-08-24T07:19:57;101274.22;;;24.05;100.00
54308;BME280;40208;39.778;2.710;2022-08-24T07:22:42;101298.16;;;24.29;100.00
54308;BME280;40208;39.778;2.710;2022-08-24T07:25:32;101282.31;;;24.34;100.00
54308;BME280;40208;39.778;2.710;2022-08-24T07:28:17;101293.84;;;24.46;100.00
54308;BME280;40208;39.778;2.710;2022-08-24T07:31:02;101285.53;;;24.58;100.00
54308;BME280;40208;39.778;2.710;2022-08-24T07:33:47;101279.53;;;24.64;100.00
54308;BME280;40208;39.778;2.710;2022-08-24T07:36:33;101256.72;;;24.57;100.00
54308;BME280;40208;39.778;2.710;2022-08-24T07:39:18;101278.59;;;24.83;100.00
54308;BME280;40208;39.778;2.710;2022-08-24T07:42:03;101278.63;;;25.01;100.00
54308;BME280;40208;39.778;2.710;2022-08-24T07:44:48;101278.75;;;25.09;100.00
54308;BME280;40208;39.778;2.710;2022-08-24T07:47:33;101267.25;;;25.15;100.00
54308;BME280;40208;39.778;2.710;2022-08-24T07:50:18;101286.66;;;25.30;100.00
54308;BME280;40208;39.778;2.710;2022-08-24T07:53:04;101281.94;;;25.50;100.00
54308;BME280;40208;39.778;2.710;2022-08-24T07:55:53;101247.47;;;25.32;100.00
54308;BME280;40208;39.778;2.710;2022-08-24T07:58:40;101246.53;;;25.42;100.00
54308;BME280;40208;39.778;2.710;2022-08-24T08:01:25;101168.78;;;25.13;100.00
54308;BME280;40208;39.778;2.710;2022-08-24T08:04:11;101282.94;;;25.85;100.00
54308;BME280;40208;39.778;2.710;2022-08-24T08:06:57;101241.53;;;25.73;100.00
54308;BME280;40208;39.778;2.710;2022-08-24T08:09:44;101280.69;;;25.98;100.00
54308;BME280;40208;39.778;2.710;2022-08-24T08:12:29;101268.59;;;25.92;100.00
54308;BME280;40208;39.778;2.710;2022-08-24T08:15:14;101273.44;;;26.07;100.00
54308;BME280;40208;39.778;2.710;2022-08-24T08:17:59;101245.19;;;25.99;100.00
54308;BME280;40208;39.778;2.710;2022-08-24T08:20:44;101262.13;;;26.19;100.00
54308;BME280;40208;39.778;2.710;2022-08-24T08:23:28;101254.66;;;26.21;100.00
54308;BME280;40208;39.778;2.710;2022-08-24T08:26:32;101245.16;;;26.17;100.00
54308;BME280;40208;39.778;2.710;2022-08-24T08:29:17;101272.50;;;26.42;100.00
54308;BME280;40208;39.778;2.710;2022-08-24T08:32:03;101283.28;;;26.52;100.00
54308;BME280;40208;39.778;2.710;2022-08-24T08:34:47;101284.69;;;26.56;100.00
54308;BME280;40208;39.778;2.710;2022-08-24T08:37:32;101287.09;;;26.59;100.00
54308;BME280;40208;39.778;2.710;2022-08-24T08:43:42;101282.56;;;26.76;100.00
54308;BME280;40208;39.778;2.710;2022-08-24T09:02:42;101287.56;;;27.23;100.00
54308;BME280;40208;39.778;2.710;2022-08-24T09:11:55;101285.88;;;27.38;100.00
54308;BME280;40208;39.778;2.710;2022-08-24T09:15:13;101287.59;;;27.47;100.00
54308;BME280;40208;39.778;2.710;2022-08-24T09:24:38;101277.75;;;27.71;100.00
54308;BME280;40208;39.778;2.710;2022-08-24T09:27:48;101280.16;;;27.74;100.00
54308;BME280;40208;39.778;2.710;2022-08-24T09:34:17;101287.69;;;27.88;100.00
54308;BME280;40208;39.778;2.710;2022-08-24T09:37:19;101290.06;;;27.91;100.00
54308;BME280;40208;39.778;2.710;2022-08-24T09:40:34;101288.19;;;27.92;100.00
54308;BME280;40208;39.778;2.710;2022-08-24T09:43:47;101280.88;;;28.01;100.00
54308;BME280;40208;39.778;2.710;2022-08-24T10:07:49;101285.56;;;28.40;100.00
54308;BME280;40208;39.778;2.710;2022-08-24T10:11:02;101265.47;;;28.41;100.00
54308;BME280;40208;39.778;2.710;2022-08-24T10:30:02;101266.72;;;28.78;100.00
54308;BME280;40208;39.778;2.710;2022-08-24T10:33:25;101267.41;;;28.80;100.00
54308;BME280;40208;39.778;2.710;2022-08-24T10:55:15;101253.59;;;29.12;100.00
54308;BME280;40208;39.778;2.710;2022-08-24T11:04:12;101217.78;;;29.07;100.00
54308;BME280;40208;39.778;2.710;2022-08-24T11:07:17;101265.03;;;29.47;100.00
54308;BME280;40208;39.778;2.710;2022-08-24T11:10:07;101228.38;;;29.33;100.00
54308;BME280;40208;39.778;2.710;2022-08-24T11:12:52;101238.75;;;29.38;100.00
54308;BME280;40208;39.778;2.710;2022-08-24T11:15:46;101244.28;;;29.53;100.00
54308;BME280;40208;39.778;2.710;2022-08-24T11:18:53;101244.56;;;29.58;100.00
54308;BME280;40208;39.778;2.710;2022-08-24T11:21:49;101257.53;;;29.64;100.00
54308;BME280;40208;39.778;2.710;2022-08-24T11:27:38;101259.00;;;29.75;100.00
54308;BME280;40208;39.778;2.710;2022-08-24T11:30:27;101151.72;;;29.18;100.00
54308;BME280;40208;39.778;2.710;2022-08-24T11:33:46;101253.06;;;29.71;100.00
54308;BME280;40208;39.778;2.710;2022-08-24T11:36:34;101240.25;;;29.64;100.00
54308;BME280;40208;39.778;2.710;2022-08-24T11:42:35;101230.84;;;29.66;100.00
54308;BME280;40208;39.778;2.710;2022-08-24T11:45:33;101250.41;;;29.78;100.00
54308;BME280;40208;39.778;2.710;2022-08-24T11:54:22;101254.72;;;29.95;100.00
54308;BME280;40208;39.778;2.710;2022-08-24T11:57:37;101253.13;;;30.01;100.00
54308;BME280;40208;39.778;2.710;2022-08-24T12:00:44;101264.28;;;29.99;100.00
54308;BME280;40208;39.778;2.710;2022-08-24T12:15:51;101269.88;;;30.21;100.00
54308;BME280;40208;39.778;2.710;2022-08-24T12:21:45;101181.66;;;29.58;100.00
54308;BME280;40208;39.778;2.710;2022-08-24T12:24:38;101268.06;;;30.13;100.00
54308;BME280;40208;39.778;2.710;2022-08-24T12:27:27;101115.00;;;29.21;100.00
54308;BME280;40208;39.778;2.710;2022-08-24T12:30:16;101261.28;;;30.09;100.00
54308;BME280;40208;39.778;2.710;2022-08-24T12:33:05;101264.84;;;30.10;100.00
54308;BME280;40208;39.778;2.710;2022-08-24T12:35:55;101255.88;;;30.16;100.00
54308;BME280;40208;39.778;2.710;2022-08-24T12:38:48;101226.97;;;29.98;100.00
54308;BME280;40208;39.778;2.710;2022-08-24T12:41:47;101250.41;;;30.16;100.00
54308;BME280;40208;39.778;2.710;2022-08-24T12:45:03;101259.78;;;30.21;100.00
54308;BME280;40208;39.778;2.710;2022-08-24T12:59:45;101256.00;;;30.22;100.00
54308;BME280;40208;39.778;2.710;2022-08-24T13:02:40;101252.41;;;30.22;100.00
54308;BME280;40208;39.778;2.710;2022-08-24T13:05:44;101242.81;;;30.26;100.00
54308;BME280;40208;39.778;2.710;2022-08-24T13:08:41;101248.59;;;30.31;100.00
54308;BME280;40208;39.778;2.710;2022-08-24T13:11:32;101250.47;;;30.31;100.00
54308;BME280;40208;39.778;2.710;2022-08-24T13:14:20;101246.31;;;30.35;100.00
54308;BME280;40208;39.778;2.710;2022-08-24T13:17:09;101244.44;;;30.35;100.00
54308;BME280;40208;39.778;2.710;2022-08-24T13:20:22;101225.44;;;30.34;100.00
54308;BME280;40208;39.778;2.710;2022-08-24T13:29:00;101209.84;;;30.34;100.00
54308;BME280;40208;39.778;2.710;2022-08-24T13:31:53;101223.66;;;30.41;100.00
54308;BME280;40208;39.778;2.710;2022-08-24T13:34:43;101216.19;;;30.35;100.00
54308;BME280;40208;39.778;2.710;2022-08-24T13:37:28;101213.25;;;30.36;100.00
54308;BME280;40208;39.778;2.710;2022-08-24T13:43:19;101220.22;;;30.24;100.00
54308;BME280;40208;39.778;2.710;2022-08-24T13:46:16;101207.53;;;30.23;100.00
54308;BME280;40208;39.778;2.710;2022-08-24T14:01:25;101194.66;;;30.32;100.00
54308;BME280;40208;39.778;2.710;2022-08-24T14:10:14;101196.75;;;30.45;100.00
54308;BME280;40208;39.778;2.710;2022-08-24T14:23:00;101199.84;;;30.56;100.00
54308;BME280;40208;39.778;2.710;2022-08-24T14:25:47;101191.91;;;30.47;100.00
54308;BME280;40208;39.778;2.710;2022-08-24T14:28:39;101180.78;;;30.33;100.00
54308;BME280;40208;39.778;2.710;2022-08-24T14:31:24;101112.97;;;29.91;100.00
54308;BME280;40208;39.778;2.710;2022-08-24T14:34:20;101189.81;;;30.49;100.00
54308;BME280;40208;39.778;2.710;2022-08-24T14:46:29;101183.69;;;30.61;100.00
54308;BME280;40208;39.778;2.710;2022-08-24T14:49:22;101177.34;;;30.61;100.00
54308;BME280;40208;39.778;2.710;2022-08-24T14:58:40;101184.81;;;30.67;100.00
54308;BME280;40208;39.778;2.710;2022-08-24T15:04:35;101177.63;;;30.66;100.00
54308;BME280;40208;39.778;2.710;2022-08-24T15:10:12;101166.47;;;30.68;100.00
54308;BME280;40208;39.778;2.710;2022-08-24T15:13:02;101186.41;;;30.76;100.00
54308;BME280;40208;39.778;2.710;2022-08-24T15:19:18;101174.84;;;30.81;100.00
54308;BME280;40208;39.778;2.710;2022-08-24T15:22:11;101171.94;;;30.82;100.00
54308;BME280;40208;39.778;2.710;2022-08-24T15:25:03;101174.31;;;30.85;100.00
54308;BME280;40208;39.778;2.710;2022-08-24T15:28:06;101168.16;;;30.83;100.00
54308;BME280;40208;39.778;2.710;2022-08-24T15:31:00;101168.63;;;30.87;100.00
54308;BME280;40208;39.778;2.710;2022-08-24T15:34:02;101177.72;;;30.88;100.00
54308;BME280;40208;39.778;2.710;2022-08-24T15:36:58;101161.25;;;30.73;100.00
54308;BME280;40208;39.778;2.710;2022-08-24T15:39:44;101150.03;;;30.68;100.00
54308;BME280;40208;39.778;2.710;2022-08-24T15:42:31;101159.75;;;30.70;100.00
54308;BME280;40208;39.778;2.710;2022-08-24T15:45:18;101142.00;;;30.66;100.00
54308;BME280;40208;39.778;2.710;2022-08-24T15:48:04;101169.19;;;30.82;100.00
54308;BME280;40208;39.778;2.710;2022-08-24T15:50:49;101074.03;;;30.25;100.00
54308;BME280;40208;39.778;2.710;2022-08-24T15:53:40;101168.19;;;30.69;100.00
54308;BME280;40208;39.778;2.710;2022-08-24T15:56:30;101163.38;;;30.71;100.00
54308;BME280;40208;39.778;2.710;2022-08-24T15:59:26;101167.78;;;30.72;100.00
54308;BME280;40208;39.778;2.710;2022-08-24T16:08:11;101058.22;;;30.06;100.00
54308;BME280;40208;39.778;2.710;2022-08-24T16:11:07;101140.59;;;30.55;100.00
54308;BME280;40208;39.778;2.710;2022-08-24T16:14:09;101151.00;;;30.60;100.00
54308;BME280;40208;39.778;2.710;2022-08-24T16:16:55;101108.78;;;30.39;100.00
54308;BME280;40208;39.778;2.710;2022-08-24T16:19:40;101146.19;;;30.62;100.00
54308;BME280;40208;39.778;2.710;2022-08-24T16:22:34;101143.63;;;30.60;100.00
54308;BME280;40208;39.778;2.710;2022-08-24T16:31:06;101148.16;;;30.53;100.00
54308;BME280;40208;39.778;2.710;2022-08-24T16:33:51;101135.03;;;30.49;100.00
54308;BME280;40208;39.778;2.710;2022-08-24T16:36:36;101060.88;;;29.99;100.00
54308;BME280;40208;39.778;2.710;2022-08-24T16:39:21;101075.47;;;30.06;100.00
54308;BME280;40208;39.778;2.710;2022-08-24T16:42:09;101143.09;;;30.50;100.00
54308;BME280;40208;39.778;2.710;2022-08-24T16:44:56;101118.38;;;30.29;100.00
54308;BME280;40208;39.778;2.710;2022-08-24T16:47:42;101146.13;;;30.40;100.00
54308;BME280;40208;39.778;2.710;2022-08-24T16:50:26;101093.13;;;30.04;100.00
54308;BME280;40208;39.778;2.710;2022-08-24T16:53:11;101140.09;;;30.30;100.00
54308;BME280;40208;39.778;2.710;2022-08-24T16:55:57;101126.63;;;30.20;100.00
54308;BME280;40208;39.778;2.710;2022-08-24T16:58:44;101152.25;;;30.28;100.00
54308;BME280;40208;39.778;2.710;2022-08-24T17:01:29;101140.81;;;30.24;100.00
54308;BME280;40208;39.778;2.710;2022-08-24T17:04:15;101154.50;;;30.24;100.00
54308;BME280;40208;39.778;2.710;2022-08-24T17:07:01;101098.06;;;29.93;100.00
54308;BME280;40208;39.778;2.710;2022-08-24T17:09:47;101152.50;;;30.18;100.00
54308;BME280;40208;39.778;2.710;2022-08-24T17:12:32;101149.59;;;30.19;100.00
54308;BME280;40208;39.778;2.710;2022-08-24T17:15:20;101160.00;;;30.09;100.00
54308;BME280;40208;39.778;2.710;2022-08-24T17:18:07;101147.25;;;30.16;100.00
54308;BME280;40208;39.778;2.710;2022-08-24T17:20:53;101152.22;;;30.13;100.00
54308;BME280;40208;39.778;2.710;2022-08-24T17:23:39;101158.28;;;30.08;100.00
54308;BME280;40208;39.778;2.710;2022-08-24T17:26:24;101157.59;;;30.06;100.00
54308;BME280;40208;39.778;2.710;2022-08-24T17:29:10;101144.03;;;29.98;100.00
54308;BME280;40208;39.778;2.710;2022-08-24T17:31:56;101162.81;;;30.01;100.00
54308;BME280;40208;39.778;2.710;2022-08-24T17:34:42;101121.53;;;29.73;100.00
54308;BME280;40208;39.778;2.710;2022-08-24T17:37:27;101166.09;;;29.96;100.00
54308;BME280;40208;39.778;2.710;2022-08-24T17:40:15;101169.69;;;29.97;100.00
54308;BME280;40208;39.778;2.710;2022-08-24T17:43:00;101168.94;;;29.88;100.00
54308;BME280;40208;39.778;2.710;2022-08-24T17:45:45;101169.31;;;29.85;100.00
54308;BME280;40208;39.778;2.710;2022-08-24T17:48:30;101169.13;;;29.87;100.00
54308;BME280;40208;39.778;2.710;2022-08-24T17:51:16;101180.06;;;29.87;100.00
54308;BME280;40208;39.778;2.710;2022-08-24T17:54:01;101166.81;;;29.75;100.00
54308;BME280;40208;39.778;2.710;2022-08-24T17:56:46;101162.28;;;29.68;100.00
54308;BME280;40208;39.778;2.710;2022-08-24T17:59:34;101187.03;;;29.74;100.00
54308;BME280;40208;39.778;2.710;2022-08-24T18:02:19;101187.88;;;29.75;100.00
54308;BME280;40208;39.778;2.710;2022-08-24T18:05:04;101106.31;;;29.17;100.00
54308;BME280;40208;39.778;2.710;2022-08-24T18:07:53;101203.81;;;29.71;100.00
54308;BME280;40208;39.778;2.710;2022-08-24T18:10:39;101210.50;;;29.69;100.00